createdAt,value
2023-07-20T00:01:52.571Z,1.80
2023-07-20T00:04:19.115Z,1.83
2023-07-20T00:06:46.040Z,1.70
2023-07-20T00:09:12.507Z,1.70
2023-07-20T00:11:39.679Z,1.70
2023-07-20T00:14:06.897Z,1.90
2023-07-20T00:16:33.780Z,1.60
2023-07-20T00:19:00.297Z,1.88
2023-07-20T00:21:27.064Z,2.03
2023-07-20T00:23:54.005Z,1.52
2023-07-20T00:26:20.954Z,1.70
2023-07-20T00:28:51.198Z,1.65
2023-07-20T00:31:17.699Z,1.80
2023-07-20T00:33:44.187Z,1.70
2023-07-20T00:36:10.632Z,1.90
2023-07-20T00:38:37.054Z,1.90
2023-07-20T00:41:03.512Z,1.92
2023-07-20T00:43:29.920Z,1.73
2023-07-20T00:45:57.028Z,1.65
2023-07-20T00:48:24.006Z,1.88
2023-07-20T00:50:51.359Z,1.97
2023-07-20T00:53:18.110Z,1.67
2023-07-20T00:55:45.308Z,1.63
2023-07-20T00:58:12.217Z,1.55
2023-07-20T01:00:38.701Z,1.60
2023-07-20T01:03:05.176Z,1.70
2023-07-20T01:05:48.433Z,1.52
2023-07-20T01:08:41.215Z,1.77
2023-07-20T01:11:13.974Z,1.40
2023-07-20T01:13:40.910Z,1.70
2023-07-20T01:16:07.371Z,1.60
2023-07-20T01:18:33.789Z,1.60
2023-07-20T01:21:07.435Z,1.63
2023-07-20T01:23:43.254Z,2.05
2023-07-20T01:26:35.313Z,1.90
2023-07-20T01:29:39.070Z,1.83
2023-07-20T01:32:08.234Z,1.90
2023-07-20T01:34:37.520Z,1.60
2023-07-20T01:37:04.790Z,1.80
2023-07-20T01:39:33.729Z,2.00
2023-07-20T01:42:00.602Z,1.80
2023-07-20T01:44:27.091Z,1.45
2023-07-20T01:46:53.481Z,1.77
2023-07-20T01:49:19.896Z,1.90
2023-07-20T01:51:46.295Z,1.70
2023-07-20T01:54:12.771Z,2.07
2023-07-20T01:56:39.181Z,1.60
2023-07-20T01:59:05.623Z,1.50
2023-07-20T02:01:32.131Z,1.73
2023-07-20T02:03:58.593Z,1.60
2023-07-20T02:06:25.297Z,1.47
2023-07-20T02:08:52.065Z,1.60
2023-07-20T02:11:18.452Z,1.60
2023-07-20T02:13:44.860Z,1.80
2023-07-20T02:16:12.400Z,1.73
2023-07-20T02:18:38.828Z,1.63
2023-07-20T02:21:05.366Z,1.60
2023-07-20T02:23:31.771Z,1.40
2023-07-20T02:25:58.214Z,1.60
2023-07-20T02:28:24.799Z,1.48
2023-07-20T02:30:51.372Z,1.63
2023-07-20T02:33:17.797Z,1.50
2023-07-20T02:35:44.205Z,1.60
2023-07-20T02:38:10.613Z,1.70
2023-07-20T02:40:37.031Z,1.48
2023-07-20T02:43:03.442Z,1.30
2023-07-20T02:45:30.479Z,1.70
2023-07-20T02:47:56.938Z,1.65
2023-07-20T02:50:23.518Z,1.40
2023-07-20T02:52:49.968Z,1.38
2023-07-20T02:55:16.750Z,1.53
2023-07-20T02:57:43.227Z,1.40
2023-07-20T03:00:10.277Z,1.45
2023-07-20T03:02:36.803Z,1.50
2023-07-20T03:05:06.839Z,1.38
2023-07-20T03:07:33.440Z,1.67
2023-07-20T03:10:00.253Z,1.40
2023-07-20T03:12:26.792Z,1.80
2023-07-20T03:14:53.637Z,1.55
2023-07-20T03:17:21.755Z,1.45
2023-07-20T03:19:48.359Z,1.30
2023-07-20T03:22:14.880Z,1.55
2023-07-20T03:24:41.280Z,1.55
2023-07-20T03:27:07.771Z,1.40
2023-07-20T03:29:34.475Z,1.38
2023-07-20T03:32:00.974Z,1.60
2023-07-20T03:34:27.412Z,1.60
2023-07-20T03:36:53.834Z,1.73
2023-07-20T03:39:20.768Z,1.50
2023-07-20T03:41:47.274Z,1.83
2023-07-20T03:44:13.729Z,1.37
2023-07-20T03:46:40.202Z,1.33
2023-07-20T03:49:07.336Z,1.42
2023-07-20T03:51:33.756Z,1.40
2023-07-20T03:54:00.618Z,1.58
2023-07-20T03:56:27.518Z,1.53
2023-07-20T03:58:54.061Z,1.60
2023-07-20T04:01:20.541Z,1.63
2023-07-20T04:03:49.775Z,1.45
2023-07-20T04:06:18.005Z,1.50
2023-07-20T04:08:45.402Z,1.33
2023-07-20T04:11:11.853Z,1.50
2023-07-20T04:13:38.269Z,1.90
2023-07-20T04:16:05.021Z,1.40
2023-07-20T04:18:31.456Z,1.35
2023-07-20T04:20:57.886Z,1.30
2023-07-20T04:23:24.378Z,1.60
2023-07-20T04:25:51.890Z,1.60
2023-07-20T04:28:18.289Z,1.67
2023-07-20T04:30:44.739Z,1.50
2023-07-20T04:33:11.273Z,1.37
2023-07-20T04:35:53.253Z,1.42
2023-07-20T04:38:20.747Z,1.67
2023-07-20T04:40:50.977Z,1.50
2023-07-20T04:43:18.918Z,1.50
2023-07-20T04:45:45.602Z,1.80
2023-07-20T04:48:17.128Z,1.80
2023-07-20T04:50:46.001Z,1.55
2023-07-20T04:53:15.517Z,1.58
2023-07-20T04:55:51.612Z,1.60
2023-07-20T04:58:22.330Z,1.50
2023-07-20T05:00:52.430Z,1.52
2023-07-20T05:03:19.307Z,1.50
2023-07-20T05:05:50.599Z,1.50
2023-07-20T05:08:17.657Z,1.50
2023-07-20T05:10:44.190Z,1.40
2023-07-20T05:13:10.676Z,1.30
2023-07-20T05:15:37.176Z,1.38
2023-07-20T05:18:03.738Z,1.60
2023-07-20T05:20:30.222Z,1.50
2023-07-20T05:22:56.720Z,1.73
2023-07-20T05:25:23.925Z,1.85
2023-07-20T05:27:51.608Z,1.70
2023-07-20T05:30:18.218Z,1.80
2023-07-20T05:32:46.488Z,1.60
2023-07-20T05:35:13.315Z,1.60
2023-07-20T05:37:39.865Z,1.80
2023-07-20T05:40:08.877Z,1.80
2023-07-20T05:42:35.344Z,1.70
2023-07-20T05:45:01.847Z,1.70
2023-07-20T05:47:28.336Z,1.87
2023-07-20T05:49:54.807Z,1.67
2023-07-20T05:52:21.268Z,1.70
2023-07-20T05:54:47.715Z,2.05
2023-07-20T05:57:14.507Z,1.77
2023-07-20T05:59:45.007Z,1.83
2023-07-20T06:02:12.334Z,2.00
2023-07-20T06:04:39.822Z,1.92
2023-07-20T06:07:06.408Z,2.22
2023-07-20T06:09:32.799Z,2.10
2023-07-20T06:11:59.271Z,2.10
2023-07-20T06:14:25.729Z,2.30
2023-07-20T06:16:52.417Z,1.90
2023-07-20T06:19:18.872Z,2.15
2023-07-20T06:21:45.557Z,2.30
2023-07-20T06:24:11.994Z,2.40
2023-07-20T06:26:40.390Z,2.30
2023-07-20T06:29:10.211Z,2.10
2023-07-20T06:31:37.415Z,1.98
2023-07-20T06:34:04.341Z,1.92
2023-07-20T06:36:30.942Z,2.10
2023-07-20T06:43:59.173Z,2.25
2023-07-20T06:46:28.769Z,2.05
2023-07-20T06:51:25.623Z,1.88
2023-07-20T06:53:52.589Z,1.67
2023-07-20T06:56:20.084Z,2.00
2023-07-20T06:58:48.374Z,2.05
2023-07-20T07:01:15.594Z,2.03
2023-07-20T07:03:42.063Z,2.20
2023-07-20T07:06:08.640Z,2.03
2023-07-20T07:08:35.922Z,2.50
2023-07-20T07:11:02.982Z,2.28
2023-07-20T07:13:29.538Z,2.20
2023-07-20T07:15:55.969Z,1.85
2023-07-20T07:18:22.583Z,2.08
2023-07-20T07:20:53.631Z,2.15
2023-07-20T07:23:20.197Z,1.88
2023-07-20T07:25:47.099Z,2.00
2023-07-20T07:28:14.094Z,2.30
2023-07-20T07:30:40.517Z,1.90
2023-07-20T07:33:06.973Z,2.05
2023-07-20T07:35:33.699Z,1.55
2023-07-20T07:38:12.285Z,1.80
2023-07-20T07:40:45.791Z,2.30
2023-07-20T07:43:12.985Z,1.80
2023-07-20T07:45:39.651Z,2.10
2023-07-20T07:48:06.794Z,2.15
2023-07-20T07:50:34.589Z,1.87
2023-07-20T07:53:01.385Z,2.10
2023-07-20T07:55:27.836Z,2.20
2023-07-20T07:57:54.288Z,1.98
2023-07-20T08:00:20.820Z,2.13
2023-07-20T08:02:49.149Z,2.27
2023-07-20T08:05:15.725Z,2.10
2023-07-20T08:07:42.144Z,1.95
2023-07-20T08:10:09.462Z,2.10
2023-07-20T08:12:36.281Z,2.05
2023-07-20T08:15:03.350Z,1.87
2023-07-20T08:17:30.314Z,2.00
2023-07-20T08:19:56.893Z,1.80
2023-07-20T08:22:23.301Z,1.90
2023-07-20T08:24:49.824Z,1.85
2023-07-20T08:27:16.480Z,1.80
2023-07-20T08:29:42.972Z,2.13
2023-07-20T08:32:09.647Z,1.58
2023-07-20T08:34:36.911Z,1.88
2023-07-20T08:37:03.567Z,2.10
2023-07-20T08:39:29.981Z,2.00
2023-07-20T08:41:57.241Z,2.10
2023-07-20T08:44:24.553Z,2.20
2023-07-20T08:46:52.926Z,1.73
2023-07-20T08:49:20.047Z,2.40
2023-07-20T08:51:47.805Z,2.10
2023-07-20T08:54:14.569Z,1.90
2023-07-20T08:56:42.227Z,1.83
2023-07-20T08:59:09.386Z,1.90
2023-07-20T09:01:40.040Z,2.08
2023-07-20T09:04:07.171Z,1.80
2023-07-20T09:06:35.365Z,2.10
2023-07-20T09:09:01.860Z,1.98
2023-07-20T09:11:28.500Z,2.20
2023-07-20T09:14:05.780Z,1.88
2023-07-20T09:16:32.400Z,1.90
2023-07-20T09:19:01.312Z,1.92
2023-07-20T09:21:31.627Z,1.63
2023-07-20T09:23:58.191Z,1.90
2023-07-20T09:26:24.929Z,1.80
2023-07-20T09:28:54.860Z,2.00
2023-07-20T09:31:23.462Z,1.95
2023-07-20T09:36:57.457Z,1.70
2023-07-20T09:39:09.192Z,1.60
2023-07-20T09:41:44.279Z,1.50
2023-07-20T09:51:46.853Z,1.27
2023-07-20T09:54:14.940Z,1.33
2023-07-20T09:56:43.046Z,1.33
2023-07-20T09:59:09.902Z,1.10
2023-07-20T10:01:41.319Z,1.27
2023-07-20T10:04:10.811Z,1.42
2023-07-20T10:06:43.076Z,1.33
2023-07-20T10:09:11.566Z,1.50
2023-07-20T10:11:43.113Z,1.58
2023-07-20T10:14:13.283Z,1.30
2023-07-20T10:16:53.096Z,1.67
2023-07-20T10:19:35.898Z,1.70
2023-07-20T10:22:10.265Z,1.60
2023-07-20T10:24:38.051Z,1.45
2023-07-20T10:27:06.128Z,1.52
2023-07-20T10:29:33.705Z,1.60
2023-07-20T10:32:01.167Z,1.40
2023-07-20T10:34:28.691Z,1.70
2023-07-20T10:36:55.647Z,1.50
2023-07-20T10:39:31.876Z,1.45
2023-07-20T10:42:08.748Z,1.30
2023-07-20T10:44:38.265Z,1.50
2023-07-20T10:47:12.533Z,1.63
2023-07-20T10:50:01.506Z,1.60
2023-07-20T10:52:37.920Z,1.65
2023-07-20T10:55:18.326Z,1.60
2023-07-20T10:58:08.800Z,1.27
2023-07-20T11:00:35.381Z,1.30
2023-07-20T11:03:01.834Z,1.60
2023-07-20T11:05:35.082Z,1.60
2023-07-20T11:08:05.779Z,1.70
2023-07-20T11:10:33.056Z,1.70
2023-07-20T11:13:23.201Z,1.77
2023-07-20T11:16:06.810Z,1.50
2023-07-20T11:18:35.466Z,1.60
2023-07-20T11:21:02.009Z,1.60
2023-07-20T11:23:30.509Z,1.63
2023-07-20T11:25:56.957Z,1.50
2023-07-20T11:28:23.378Z,1.70
2023-07-20T11:30:55.757Z,1.52
2023-07-20T11:33:22.412Z,1.77
2023-07-20T11:35:51.977Z,1.50
2023-07-20T11:38:18.452Z,1.48
2023-07-20T11:40:47.991Z,1.30
2023-07-20T11:45:45.884Z,1.30
2023-07-20T11:48:18.533Z,1.60
2023-07-20T11:50:45.236Z,1.60
2023-07-20T11:53:12.246Z,1.55
2023-07-20T11:55:40.708Z,1.40
2023-07-20T11:58:08.810Z,1.20
2023-07-20T12:00:36.547Z,1.30
2023-07-20T12:03:08.027Z,1.40
2023-07-20T12:05:44.358Z,1.20
2023-07-20T12:08:21.705Z,1.10
2023-07-20T12:10:49.635Z,1.10
2023-07-20T12:13:16.064Z,1.67
2023-07-20T12:15:43.276Z,1.27
2023-07-20T12:18:09.796Z,1.30
2023-07-20T12:20:37.950Z,1.50
2023-07-20T12:23:06.022Z,1.40
2023-07-20T12:25:38.851Z,1.30
2023-07-20T12:28:10.107Z,1.10
2023-07-20T12:30:40.452Z,1.10
2023-07-20T12:33:07.081Z,1.45
2023-07-20T12:35:34.523Z,1.30
2023-07-20T12:38:01.290Z,1.10
2023-07-20T12:40:27.875Z,1.40
2023-07-20T12:42:54.291Z,1.30
2023-07-20T12:45:20.728Z,1.27
2023-07-20T12:47:47.282Z,1.50
2023-07-20T12:50:13.912Z,1.30
2023-07-20T12:52:41.207Z,1.20
2023-07-20T12:55:09.322Z,1.20
2023-07-20T12:57:36.738Z,1.20
2023-07-20T13:00:05.343Z,1.00
2023-07-20T13:02:33.675Z,1.00
2023-07-20T13:05:00.252Z,1.08
2023-07-20T13:10:05.160Z,1.20
2023-07-20T13:12:33.186Z,1.27
2023-07-20T13:15:01.841Z,1.40
2023-07-20T13:17:28.763Z,1.30
2023-07-20T13:19:58.200Z,1.30
2023-07-20T13:22:24.635Z,1.40
2023-07-20T13:24:51.736Z,1.40
2023-07-20T13:27:19.660Z,1.40
2023-07-20T13:29:48.396Z,1.60
2023-07-20T13:32:16.366Z,1.40
2023-07-20T13:34:43.077Z,1.40
2023-07-20T13:37:12.271Z,1.40
2023-07-20T13:39:40.090Z,1.70
2023-07-20T13:42:07.139Z,1.42
2023-07-20T13:44:33.707Z,1.40
2023-07-20T13:47:21.618Z,1.50
2023-07-20T13:49:48.321Z,1.60
2023-07-20T13:57:15.660Z,1.70
2023-07-20T13:59:42.927Z,1.40
2023-07-20T14:04:38.926Z,1.60
2023-07-20T14:07:05.867Z,1.58
2023-07-20T14:09:33.662Z,1.90
2023-07-20T14:14:29.583Z,1.50
2023-07-20T14:16:57.157Z,1.20
2023-07-20T14:19:23.706Z,1.50
2023-07-20T14:21:50.430Z,1.70
2023-07-20T14:24:18.940Z,1.40
2023-07-20T14:26:46.225Z,1.70
2023-07-20T14:29:12.934Z,1.30
2023-07-20T14:31:39.701Z,1.40
2023-07-20T14:34:06.205Z,1.40
2023-07-20T14:36:34.622Z,1.70
2023-07-20T14:39:01.750Z,1.58
2023-07-20T14:41:28.300Z,1.67
2023-07-20T14:43:54.715Z,1.40
2023-07-20T14:46:21.877Z,1.42
2023-07-20T14:48:48.992Z,1.45
2023-07-20T14:51:15.461Z,1.40
2023-07-20T14:53:41.897Z,1.30
2023-07-20T14:56:09.097Z,1.50
2023-07-20T14:58:36.278Z,1.30
2023-07-20T15:01:04.231Z,1.40
2023-07-20T15:03:32.301Z,1.77
2023-07-20T15:05:59.340Z,1.50
2023-07-20T15:08:25.857Z,1.70
2023-07-20T15:10:52.284Z,1.60
2023-07-20T15:13:18.728Z,1.33
2023-07-20T15:15:45.236Z,1.67
2023-07-20T15:18:11.776Z,1.30
2023-07-20T15:20:38.276Z,1.48
2023-07-20T15:23:05.106Z,1.50
2023-07-20T15:25:31.592Z,1.77
2023-07-20T15:27:58.052Z,2.50
2023-07-20T15:35:24.659Z,1.40
2023-07-20T15:37:51.104Z,1.30
2023-07-20T15:40:17.624Z,1.25
2023-07-20T15:42:44.350Z,1.40
2023-07-20T15:45:11.133Z,1.52
2023-07-20T15:47:37.620Z,1.25
2023-07-20T15:50:04.675Z,1.35
2023-07-20T15:52:31.298Z,1.30
2023-07-20T15:54:58.566Z,1.20
2023-07-20T15:57:25.005Z,1.33
2023-07-20T15:59:51.816Z,1.30
2023-07-20T16:02:18.482Z,1.30
2023-07-20T16:04:47.123Z,1.27
2023-07-20T16:07:19.580Z,1.40
2023-07-20T16:09:47.266Z,1.50
2023-07-20T16:12:13.930Z,1.20
2023-07-20T16:17:09.883Z,1.13
2023-07-20T16:19:36.379Z,1.07
2023-07-20T16:22:02.859Z,1.45
2023-07-20T16:24:29.324Z,1.25
2023-07-20T16:26:56.217Z,1.10
2023-07-20T16:29:25.226Z,1.30
2023-07-20T16:34:24.405Z,1.00
2023-07-20T16:44:20.150Z,1.10
2023-07-20T16:49:15.918Z,1.15
2023-07-20T16:51:42.322Z,1.20
2023-07-20T16:54:09.003Z,1.15
2023-07-20T16:56:35.699Z,1.13
2023-07-20T16:59:02.171Z,1.60
2023-07-20T17:01:28.615Z,1.35
2023-07-20T17:03:55.136Z,1.30
2023-07-20T17:06:21.607Z,1.25
2023-07-20T17:08:48.055Z,1.20
2023-07-20T17:11:14.469Z,1.63
2023-07-20T17:13:40.925Z,1.15
2023-07-20T17:16:07.530Z,1.60
2023-07-20T17:18:34.062Z,1.30
2023-07-20T17:21:00.585Z,1.47
2023-07-20T17:31:02.446Z,1.25
2023-07-20T17:33:29.094Z,1.20
2023-07-20T17:37:16.705Z,1.10
2023-07-20T17:38:42.587Z,1.30
2023-07-20T17:41:10.182Z,1.50
2023-07-20T17:43:37.716Z,1.48
2023-07-20T17:48:34.278Z,1.52
2023-07-20T17:51:00.910Z,1.50
2023-07-20T17:53:27.370Z,1.15
2023-07-20T17:55:53.795Z,1.25
2023-07-20T17:58:21.367Z,1.40
2023-07-20T18:00:49.256Z,1.35
2023-07-20T18:03:15.876Z,1.25
2023-07-20T18:05:42.304Z,1.20
2023-07-20T18:08:09.559Z,1.30
2023-07-20T18:10:36.114Z,1.30
2023-07-20T18:13:02.529Z,1.40
2023-07-20T18:15:28.981Z,1.30
2023-07-20T18:17:55.400Z,1.50
2023-07-20T18:20:21.985Z,1.30
2023-07-20T18:22:48.425Z,1.10
2023-07-20T18:25:14.840Z,1.20
2023-07-20T18:27:41.757Z,1.55
2023-07-20T18:30:08.648Z,1.35
2023-07-20T18:32:35.272Z,1.40
2023-07-20T18:35:02.843Z,1.40
2023-07-20T18:37:29.478Z,1.40
2023-07-20T18:39:56.201Z,1.30
2023-07-20T18:42:22.791Z,1.50
2023-07-20T18:44:49.324Z,1.30
2023-07-20T18:47:15.821Z,1.40
2023-07-20T18:49:42.281Z,1.38
2023-07-20T18:52:08.667Z,1.10
2023-07-20T18:54:35.082Z,1.52
2023-07-20T18:57:02.027Z,1.45
2023-07-20T18:59:28.452Z,1.40
2023-07-20T19:01:55.030Z,1.23
2023-07-20T19:04:22.369Z,1.30
2023-07-20T19:06:48.787Z,1.65
2023-07-20T19:09:15.188Z,1.50
2023-07-20T19:14:10.961Z,1.50
2023-07-20T19:16:37.434Z,1.48
2023-07-20T19:19:04.865Z,1.33
2023-07-20T19:21:31.270Z,1.40
2023-07-20T19:23:57.665Z,1.50
2023-07-20T19:26:24.272Z,1.45
2023-07-20T19:28:50.846Z,1.25
2023-07-20T19:31:17.372Z,1.38
2023-07-20T19:33:43.796Z,1.40
2023-07-20T19:36:10.242Z,1.37
2023-07-20T19:38:36.642Z,1.38
2023-07-20T19:41:05.558Z,1.30
2023-07-20T19:43:33.167Z,1.27
2023-07-20T19:45:59.631Z,1.50
2023-07-20T19:48:26.075Z,1.80
2023-07-20T19:50:52.579Z,1.30
2023-07-20T19:55:49.333Z,1.33
2023-07-20T19:58:15.942Z,1.40
2023-07-20T20:05:43.540Z,1.50
2023-07-20T20:08:10.509Z,1.80
2023-07-20T20:13:09.943Z,1.50
2023-07-20T20:15:40.582Z,1.50
2023-07-20T20:18:07.058Z,1.30
2023-07-20T20:20:37.204Z,1.42
2023-07-20T20:23:17.422Z,1.70
2023-07-20T20:25:44.321Z,1.50
2023-07-20T20:28:10.968Z,1.63
2023-07-20T20:30:38.638Z,1.60
2023-07-20T20:33:05.170Z,1.48
2023-07-20T20:35:34.194Z,1.70
2023-07-20T20:38:00.695Z,1.80
2023-07-20T20:40:27.930Z,1.58
2023-07-20T20:42:54.344Z,1.65
2023-07-20T20:45:20.771Z,1.70
2023-07-20T20:47:47.254Z,1.80
2023-07-20T20:50:16.067Z,1.60
2023-07-20T20:52:42.897Z,1.60
2023-07-20T20:55:10.146Z,1.60
2023-07-20T20:57:36.582Z,1.50
2023-07-20T21:00:04.458Z,1.20
2023-07-20T21:02:30.937Z,1.20
2023-07-20T21:04:57.834Z,1.60
2023-07-20T21:07:24.835Z,1.58
2023-07-20T21:09:51.344Z,1.42
2023-07-20T21:12:17.846Z,1.30
2023-07-20T21:14:44.733Z,1.40
2023-07-20T21:17:11.303Z,1.80
2023-07-20T21:19:37.807Z,2.20
2023-07-20T21:22:04.585Z,1.70
2023-07-20T21:24:31.113Z,1.80
2023-07-20T21:26:57.555Z,1.90
2023-07-20T21:29:24.067Z,1.85
2023-07-20T21:31:50.535Z,1.83
2023-07-20T21:34:16.945Z,1.88
2023-07-20T21:36:43.543Z,1.70
2023-07-20T21:39:10.006Z,1.80
2023-07-20T21:41:36.441Z,1.63
2023-07-20T21:44:02.917Z,1.67
2023-07-20T21:46:29.500Z,1.70
2023-07-20T21:48:57.903Z,1.42
2023-07-20T21:51:24.698Z,1.50
2023-07-20T21:53:51.089Z,1.70
2023-07-20T21:56:17.491Z,1.60
2023-07-20T21:58:43.931Z,1.70
2023-07-20T22:01:27.769Z,1.90
2023-07-20T22:03:57.066Z,1.60
2023-07-20T22:06:24.026Z,1.55
2023-07-20T22:08:52.928Z,1.60
2023-07-20T22:11:19.360Z,1.50
2023-07-20T22:13:45.773Z,1.90
2023-07-20T22:16:12.416Z,1.70
2023-07-20T22:18:38.889Z,1.60
2023-07-20T22:21:06.609Z,1.60
2023-07-20T22:23:34.399Z,1.50
2023-07-20T22:26:00.968Z,1.60
2023-07-20T22:28:27.816Z,1.90
2023-07-20T22:31:00.820Z,1.70
2023-07-20T22:33:27.417Z,1.80
2023-07-20T22:35:54.041Z,1.55
2023-07-20T22:38:20.499Z,1.92
2023-07-20T22:40:46.901Z,1.80
2023-07-20T22:43:13.469Z,2.00
2023-07-20T22:45:39.898Z,2.20
2023-07-20T22:48:06.343Z,1.90
2023-07-20T22:50:32.763Z,1.90
2023-07-20T22:52:59.252Z,2.10
2023-07-20T22:55:25.728Z,1.90
2023-07-20T22:57:52.507Z,1.85
2023-07-20T23:00:25.092Z,2.17
2023-07-20T23:02:51.777Z,2.15
2023-07-20T23:05:18.395Z,2.07
2023-07-20T23:07:44.819Z,2.03
2023-07-20T23:10:11.293Z,2.10
2023-07-20T23:12:38.283Z,2.10
2023-07-20T23:15:05.186Z,2.05
2023-07-20T23:17:31.832Z,1.87
2023-07-20T23:19:58.475Z,2.03
2023-07-20T23:22:25.529Z,1.85
2023-07-20T23:24:52.016Z,1.90
2023-07-20T23:27:18.507Z,2.17
2023-07-20T23:29:45.987Z,2.10
2023-07-20T23:32:12.424Z,1.98
2023-07-20T23:34:39.682Z,2.10
2023-07-20T23:37:06.643Z,2.10
2023-07-20T23:39:33.284Z,2.10
2023-07-20T23:42:02.684Z,2.43
2023-07-20T23:44:29.155Z,2.30
2023-07-20T23:46:55.934Z,2.25
2023-07-20T23:49:24.673Z,2.13
2023-07-20T23:51:51.175Z,2.20
2023-07-20T23:54:18.310Z,2.00
2023-07-20T23:56:44.906Z,2.22
2023-07-20T23:59:12.882Z,1.98
